sensor_id;sensor_type;location;lat;lon;timestamp;P1;durP1;ratioP1;P2;durP2;ratioP2
70270;SDS011;57680;54.292;18.598;2023-07-24T00:01:02;14.37;;;7.13;;
70270;SDS011;57680;54.292;18.598;2023-07-24T00:03:27;14.70;;;6.53;;
70270;SDS011;57680;54.292;18.598;2023-07-24T00:05:52;15.73;;;7.63;;
70270;SDS011;57680;54.292;18.598;2023-07-24T00:08:18;15.73;;;7.80;;
70270;SDS011;57680;54.292;18.598;2023-07-24T00:10:43;17.20;;;8.40;;
70270;SDS011;57680;54.292;18.598;2023-07-24T00:13:09;20.00;;;7.32;;
70270;SDS011;57680;54.292;18.598;2023-07-24T00:15:35;17.90;;;7.33;;
70270;SDS011;57680;54.292;18.598;2023-07-24T00:18:00;16.35;;;7.40;;
70270;SDS011;57680;54.292;18.598;2023-07-24T00:20:25;14.27;;;7.03;;
70270;SDS011;57680;54.292;18.598;2023-07-24T00:22:51;20.27;;;7.50;;
70270;SDS011;57680;54.292;18.598;2023-07-24T00:25:16;18.07;;;7.43;;
70270;SDS011;57680;54.292;18.598;2023-07-24T00:27:41;20.70;;;7.83;;
70270;SDS011;57680;54.292;18.598;2023-07-24T00:30:07;18.53;;;8.23;;
70270;SDS011;57680;54.292;18.598;2023-07-24T00:32:33;17.48;;;7.78;;
70270;SDS011;57680;54.292;18.598;2023-07-24T00:34:58;22.90;;;8.30;;
70270;SDS011;57680;54.292;18.598;2023-07-24T00:37:24;17.43;;;7.10;;
70270;SDS011;57680;54.292;18.598;2023-07-24T00:39:49;18.50;;;7.90;;
70270;SDS011;57680;54.292;18.598;2023-07-24T00:42:15;15.73;;;7.60;;
70270;SDS011;57680;54.292;18.598;2023-07-24T00:44:40;17.37;;;7.53;;
70270;SDS011;57680;54.292;18.598;2023-07-24T00:47:05;18.10;;;8.35;;
70270;SDS011;57680;54.292;18.598;2023-07-24T00:49:31;19.13;;;8.43;;
70270;SDS011;57680;54.292;18.598;2023-07-24T00:51:56;18.03;;;8.40;;
70270;SDS011;57680;54.292;18.598;2023-07-24T00:54:22;17.20;;;8.53;;
70270;SDS011;57680;54.292;18.598;2023-07-24T00:56:48;22.92;;;8.82;;
70270;SDS011;57680;54.292;18.598;2023-07-24T00:59:14;16.77;;;8.30;;
70270;SDS011;57680;54.292;18.598;2023-07-24T01:01:40;18.73;;;8.93;;
70270;SDS011;57680;54.292;18.598;2023-07-24T01:04:07;20.90;;;8.90;;
70270;SDS011;57680;54.292;18.598;2023-07-24T01:06:33;18.88;;;8.70;;
70270;SDS011;57680;54.292;18.598;2023-07-24T01:08:58;20.03;;;9.13;;
70270;SDS011;57680;54.292;18.598;2023-07-24T01:11:24;15.70;;;7.80;;
70270;SDS011;57680;54.292;18.598;2023-07-24T01:14:04;16.90;;;8.15;;
70270;SDS011;57680;54.292;18.598;2023-07-24T01:16:41;15.75;;;8.30;;
70270;SDS011;57680;54.292;18.598;2023-07-24T01:19:20;21.07;;;8.27;;
70270;SDS011;57680;54.292;18.598;2023-07-24T01:22:01;18.50;;;7.95;;
70270;SDS011;57680;54.292;18.598;2023-07-24T01:27:52;20.98;;;7.85;;
70270;SDS011;57680;54.292;18.598;2023-07-24T01:30:18;26.67;;;8.90;;
70270;SDS011;57680;54.292;18.598;2023-07-24T01:32:44;21.08;;;8.65;;
70270;SDS011;57680;54.292;18.598;2023-07-24T01:35:10;17.57;;;8.63;;
70270;SDS011;57680;54.292;18.598;2023-07-24T01:37:36;19.80;;;8.82;;
70270;SDS011;57680;54.292;18.598;2023-07-24T01:40:02;19.30;;;8.45;;
70270;SDS011;57680;54.292;18.598;2023-07-24T01:42:28;21.30;;;9.63;;
70270;SDS011;57680;54.292;18.598;2023-07-24T01:44:55;20.03;;;8.87;;
70270;SDS011;57680;54.292;18.598;2023-07-24T01:47:20;17.13;;;8.40;;
70270;SDS011;57680;54.292;18.598;2023-07-24T01:49:46;20.35;;;9.10;;
70270;SDS011;57680;54.292;18.598;2023-07-24T01:52:12;22.67;;;8.90;;
70270;SDS011;57680;54.292;18.598;2023-07-24T01:54:37;20.67;;;8.47;;
70270;SDS011;57680;54.292;18.598;2023-07-24T01:57:02;19.97;;;8.40;;
70270;SDS011;57680;54.292;18.598;2023-07-24T01:59:28;28.07;;;8.40;;
70270;SDS011;57680;54.292;18.598;2023-07-24T02:01:53;21.73;;;8.95;;
70270;SDS011;57680;54.292;18.598;2023-07-24T02:04:19;22.33;;;9.23;;
70270;SDS011;57680;54.292;18.598;2023-07-24T02:06:44;19.13;;;8.40;;
70270;SDS011;57680;54.292;18.598;2023-07-24T02:09:09;19.57;;;7.93;;
70270;SDS011;57680;54.292;18.598;2023-07-24T02:11:35;22.58;;;8.80;;
70270;SDS011;57680;54.292;18.598;2023-07-24T02:14:01;22.10;;;8.57;;
70270;SDS011;57680;54.292;18.598;2023-07-24T02:16:26;23.30;;;8.53;;
70270;SDS011;57680;54.292;18.598;2023-07-24T02:18:51;26.30;;;8.83;;
70270;SDS011;57680;54.292;18.598;2023-07-24T02:21:17;22.40;;;8.80;;
70270;SDS011;57680;54.292;18.598;2023-07-24T02:23:42;22.87;;;9.77;;
70270;SDS011;57680;54.292;18.598;2023-07-24T02:26:07;23.98;;;9.52;;
70270;SDS011;57680;54.292;18.598;2023-07-24T02:28:33;21.50;;;10.20;;
70270;SDS011;57680;54.292;18.598;2023-07-24T02:30:58;26.90;;;9.60;;
70270;SDS011;57680;54.292;18.598;2023-07-24T02:33:23;22.07;;;9.50;;
70270;SDS011;57680;54.292;18.598;2023-07-24T02:35:49;22.17;;;9.63;;
70270;SDS011;57680;54.292;18.598;2023-07-24T02:38:16;22.60;;;10.60;;
70270;SDS011;57680;54.292;18.598;2023-07-24T02:40:44;21.03;;;9.00;;
70270;SDS011;57680;54.292;18.598;2023-07-24T02:43:09;23.85;;;9.30;;
70270;SDS011;57680;54.292;18.598;2023-07-24T02:45:35;22.23;;;9.30;;
70270;SDS011;57680;54.292;18.598;2023-07-24T02:48:00;22.52;;;9.40;;
70270;SDS011;57680;54.292;18.598;2023-07-24T02:50:26;22.13;;;9.87;;
70270;SDS011;57680;54.292;18.598;2023-07-24T02:52:51;20.20;;;9.43;;
70270;SDS011;57680;54.292;18.598;2023-07-24T02:55:16;20.95;;;9.40;;
70270;SDS011;57680;54.292;18.598;2023-07-24T02:57:42;20.80;;;9.47;;
70270;SDS011;57680;54.292;18.598;2023-07-24T03:00:07;26.37;;;10.17;;
70270;SDS011;57680;54.292;18.598;2023-07-24T03:02:33;24.60;;;9.47;;
70270;SDS011;57680;54.292;18.598;2023-07-24T03:04:58;21.13;;;9.50;;
70270;SDS011;57680;54.292;18.598;2023-07-24T03:07:24;22.67;;;9.33;;
70270;SDS011;57680;54.292;18.598;2023-07-24T03:09:50;23.27;;;10.37;;
70270;SDS011;57680;54.292;18.598;2023-07-24T03:12:16;21.63;;;9.73;;
70270;SDS011;57680;54.292;18.598;2023-07-24T03:14:41;22.93;;;9.67;;
70270;SDS011;57680;54.292;18.598;2023-07-24T03:17:06;19.75;;;9.57;;
70270;SDS011;57680;54.292;18.598;2023-07-24T03:19:32;21.23;;;9.97;;
70270;SDS011;57680;54.292;18.598;2023-07-24T03:21:57;21.67;;;10.00;;
70270;SDS011;57680;54.292;18.598;2023-07-24T03:24:22;19.40;;;9.63;;
70270;SDS011;57680;54.292;18.598;2023-07-24T03:26:48;18.83;;;9.20;;
70270;SDS011;57680;54.292;18.598;2023-07-24T03:29:13;18.27;;;9.10;;
70270;SDS011;57680;54.292;18.598;2023-07-24T03:31:38;19.13;;;8.97;;
70270;SDS011;57680;54.292;18.598;2023-07-24T03:34:04;20.83;;;9.60;;
70270;SDS011;57680;54.292;18.598;2023-07-24T03:36:29;18.03;;;8.57;;
70270;SDS011;57680;54.292;18.598;2023-07-24T03:38:54;16.97;;;8.70;;
70270;SDS011;57680;54.292;18.598;2023-07-24T03:41:20;17.40;;;8.10;;
70270;SDS011;57680;54.292;18.598;2023-07-24T03:43:45;16.27;;;7.97;;
70270;SDS011;57680;54.292;18.598;2023-07-24T03:46:11;15.23;;;8.00;;
70270;SDS011;57680;54.292;18.598;2023-07-24T03:48:36;15.40;;;7.87;;
70270;SDS011;57680;54.292;18.598;2023-07-24T03:51:02;16.07;;;7.77;;
70270;SDS011;57680;54.292;18.598;2023-07-24T03:53:27;15.47;;;8.00;;
70270;SDS011;57680;54.292;18.598;2023-07-24T03:55:53;18.23;;;7.70;;
70270;SDS011;57680;54.292;18.598;2023-07-24T03:58:19;15.77;;;8.07;;
70270;SDS011;57680;54.292;18.598;2023-07-24T04:00:44;15.40;;;8.10;;
70270;SDS011;57680;54.292;18.598;2023-07-24T04:03:10;13.50;;;6.88;;
70270;SDS011;57680;54.292;18.598;2023-07-24T04:05:36;15.10;;;7.50;;
70270;SDS011;57680;54.292;18.598;2023-07-24T04:08:01;14.43;;;7.83;;
70270;SDS011;57680;54.292;18.598;2023-07-24T04:10:27;14.27;;;7.30;;
70270;SDS011;57680;54.292;18.598;2023-07-24T04:12:53;13.40;;;6.80;;
70270;SDS011;57680;54.292;18.598;2023-07-24T04:15:18;14.57;;;6.77;;
70270;SDS011;57680;54.292;18.598;2023-07-24T04:17:43;12.60;;;6.70;;
70270;SDS011;57680;54.292;18.598;2023-07-24T04:20:09;12.27;;;6.32;;
70270;SDS011;57680;54.292;18.598;2023-07-24T04:22:34;12.83;;;6.30;;
70270;SDS011;57680;54.292;18.598;2023-07-24T04:25:00;13.20;;;6.30;;
70270;SDS011;57680;54.292;18.598;2023-07-24T04:27:25;11.67;;;6.10;;
70270;SDS011;57680;54.292;18.598;2023-07-24T04:29:50;11.15;;;5.97;;
70270;SDS011;57680;54.292;18.598;2023-07-24T04:32:16;13.70;;;6.23;;
70270;SDS011;57680;54.292;18.598;2023-07-24T04:34:41;10.77;;;5.60;;
70270;SDS011;57680;54.292;18.598;2023-07-24T04:37:07;11.13;;;5.80;;
70270;SDS011;57680;54.292;18.598;2023-07-24T04:39:32;11.50;;;5.13;;
70270;SDS011;57680;54.292;18.598;2023-07-24T04:41:57;10.27;;;5.80;;
70270;SDS011;57680;54.292;18.598;2023-07-24T04:44:23;9.30;;;5.00;;
70270;SDS011;57680;54.292;18.598;2023-07-24T04:46:48;10.40;;;5.10;;
70270;SDS011;57680;54.292;18.598;2023-07-24T04:49:13;10.07;;;5.20;;
70270;SDS011;57680;54.292;18.598;2023-07-24T04:51:39;9.57;;;5.13;;
70270;SDS011;57680;54.292;18.598;2023-07-24T04:54:04;9.37;;;5.10;;
70270;SDS011;57680;54.292;18.598;2023-07-24T04:56:29;9.93;;;4.60;;
70270;SDS011;57680;54.292;18.598;2023-07-24T04:58:54;9.27;;;4.83;;
70270;SDS011;57680;54.292;18.598;2023-07-24T05:01:20;8.50;;;4.17;;
70270;SDS011;57680;54.292;18.598;2023-07-24T05:03:45;10.37;;;4.30;;
70270;SDS011;57680;54.292;18.598;2023-07-24T05:06:10;8.97;;;4.50;;
70270;SDS011;57680;54.292;18.598;2023-07-24T05:08:36;8.97;;;4.23;;
70270;SDS011;57680;54.292;18.598;2023-07-24T05:11:01;8.90;;;4.30;;
70270;SDS011;57680;54.292;18.598;2023-07-24T05:13:26;11.07;;;4.30;;
70270;SDS011;57680;54.292;18.598;2023-07-24T05:15:52;9.43;;;4.33;;
70270;SDS011;57680;54.292;18.598;2023-07-24T05:18:17;10.77;;;4.33;;
70270;SDS011;57680;54.292;18.598;2023-07-24T05:20:46;8.77;;;4.40;;
70270;SDS011;57680;54.292;18.598;2023-07-24T05:23:12;8.82;;;4.53;;
70270;SDS011;57680;54.292;18.598;2023-07-24T05:25:38;9.07;;;4.63;;
70270;SDS011;57680;54.292;18.598;2023-07-24T05:28:03;10.07;;;4.70;;
70270;SDS011;57680;54.292;18.598;2023-07-24T05:30:28;10.60;;;5.20;;
70270;SDS011;57680;54.292;18.598;2023-07-24T05:32:54;10.93;;;4.70;;
70270;SDS011;57680;54.292;18.598;2023-07-24T05:35:19;8.50;;;4.00;;
70270;SDS011;57680;54.292;18.598;2023-07-24T05:37:44;10.00;;;4.27;;
70270;SDS011;57680;54.292;18.598;2023-07-24T05:40:10;9.88;;;4.18;;
70270;SDS011;57680;54.292;18.598;2023-07-24T05:42:35;7.97;;;3.90;;
70270;SDS011;57680;54.292;18.598;2023-07-24T05:45:01;7.37;;;3.83;;
70270;SDS011;57680;54.292;18.598;2023-07-24T05:47:26;7.47;;;3.90;;
70270;SDS011;57680;54.292;18.598;2023-07-24T05:49:51;8.00;;;3.77;;
70270;SDS011;57680;54.292;18.598;2023-07-24T05:52:17;8.27;;;3.83;;
70270;SDS011;57680;54.292;18.598;2023-07-24T05:54:42;8.67;;;4.20;;
70270;SDS011;57680;54.292;18.598;2023-07-24T05:57:07;8.32;;;4.00;;
70270;SDS011;57680;54.292;18.598;2023-07-24T05:59:32;7.73;;;4.40;;
70270;SDS011;57680;54.292;18.598;2023-07-24T06:01:58;9.73;;;4.47;;
70270;SDS011;57680;54.292;18.598;2023-07-24T06:04:23;7.50;;;4.00;;
70270;SDS011;57680;54.292;18.598;2023-07-24T06:06:48;7.97;;;3.77;;
70270;SDS011;57680;54.292;18.598;2023-07-24T06:09:14;9.23;;;3.67;;
70270;SDS011;57680;54.292;18.598;2023-07-24T06:11:39;7.57;;;3.80;;
70270;SDS011;57680;54.292;18.598;2023-07-24T06:14:04;9.05;;;4.00;;
70270;SDS011;57680;54.292;18.598;2023-07-24T06:16:30;10.33;;;4.10;;
70270;SDS011;57680;54.292;18.598;2023-07-24T06:18:55;9.07;;;3.73;;
70270;SDS011;57680;54.292;18.598;2023-07-24T06:21:20;7.70;;;3.97;;
70270;SDS011;57680;54.292;18.598;2023-07-24T06:23:46;10.20;;;4.17;;
70270;SDS011;57680;54.292;18.598;2023-07-24T06:26:11;9.27;;;4.00;;
70270;SDS011;57680;54.292;18.598;2023-07-24T06:28:36;9.73;;;3.97;;
70270;SDS011;57680;54.292;18.598;2023-07-24T06:31:02;8.98;;;3.75;;
70270;SDS011;57680;54.292;18.598;2023-07-24T06:33:27;6.63;;;3.37;;
70270;SDS011;57680;54.292;18.598;2023-07-24T06:35:53;7.03;;;3.23;;
70270;SDS011;57680;54.292;18.598;2023-07-24T06:38:18;7.13;;;3.20;;
70270;SDS011;57680;54.292;18.598;2023-07-24T06:40:43;7.37;;;3.47;;
70270;SDS011;57680;54.292;18.598;2023-07-24T06:43:09;7.93;;;3.80;;
70270;SDS011;57680;54.292;18.598;2023-07-24T06:45:34;9.00;;;3.75;;
70270;SDS011;57680;54.292;18.598;2023-07-24T06:47:59;7.47;;;3.30;;
70270;SDS011;57680;54.292;18.598;2023-07-24T06:50:25;6.73;;;3.00;;
70270;SDS011;57680;54.292;18.598;2023-07-24T06:52:50;7.90;;;4.00;;
70270;SDS011;57680;54.292;18.598;2023-07-24T06:55:15;8.40;;;3.93;;
70270;SDS011;57680;54.292;18.598;2023-07-24T06:57:41;8.00;;;3.70;;
70270;SDS011;57680;54.292;18.598;2023-07-24T07:00:06;7.70;;;3.27;;
70270;SDS011;57680;54.292;18.598;2023-07-24T07:02:32;6.72;;;3.25;;
70270;SDS011;57680;54.292;18.598;2023-07-24T07:04:57;9.70;;;3.30;;
70270;SDS011;57680;54.292;18.598;2023-07-24T07:07:23;6.17;;;3.23;;
70270;SDS011;57680;54.292;18.598;2023-07-24T07:09:48;6.20;;;3.30;;
70270;SDS011;57680;54.292;18.598;2023-07-24T07:12:13;7.03;;;3.23;;
70270;SDS011;57680;54.292;18.598;2023-07-24T07:14:39;6.40;;;2.80;;
70270;SDS011;57680;54.292;18.598;2023-07-24T07:17:04;6.60;;;2.77;;
70270;SDS011;57680;54.292;18.598;2023-07-24T07:19:29;4.97;;;2.40;;
70270;SDS011;57680;54.292;18.598;2023-07-24T07:21:54;6.90;;;2.30;;
70270;SDS011;57680;54.292;18.598;2023-07-24T07:24:20;6.97;;;2.63;;
70270;SDS011;57680;54.292;18.598;2023-07-24T07:26:45;5.47;;;2.50;;
70270;SDS011;57680;54.292;18.598;2023-07-24T07:29:10;10.93;;;2.50;;
70270;SDS011;57680;54.292;18.598;2023-07-24T07:31:36;4.73;;;2.27;;
70270;SDS011;57680;54.292;18.598;2023-07-24T07:34:01;4.93;;;2.30;;
70270;SDS011;57680;54.292;18.598;2023-07-24T07:36:26;5.60;;;2.80;;
70270;SDS011;57680;54.292;18.598;2023-07-24T07:38:52;5.30;;;2.50;;
70270;SDS011;57680;54.292;18.598;2023-07-24T07:41:17;8.07;;;2.47;;
70270;SDS011;57680;54.292;18.598;2023-07-24T07:43:42;5.50;;;2.00;;
70270;SDS011;57680;54.292;18.598;2023-07-24T07:46:08;5.15;;;2.20;;
70270;SDS011;57680;54.292;18.598;2023-07-24T07:48:33;6.20;;;2.23;;
70270;SDS011;57680;54.292;18.598;2023-07-24T07:50:58;6.13;;;1.93;;
70270;SDS011;57680;54.292;18.598;2023-07-24T07:53:24;6.30;;;2.40;;
70270;SDS011;57680;54.292;18.598;2023-07-24T07:55:58;5.93;;;2.50;;
70270;SDS011;57680;54.292;18.598;2023-07-24T07:58:25;6.85;;;2.78;;
70270;SDS011;57680;54.292;18.598;2023-07-24T08:00:50;7.70;;;2.60;;
70270;SDS011;57680;54.292;18.598;2023-07-24T08:03:16;6.68;;;3.08;;
70270;SDS011;57680;54.292;18.598;2023-07-24T08:05:41;7.30;;;2.83;;
70270;SDS011;57680;54.292;18.598;2023-07-24T08:08:07;5.60;;;2.70;;
70270;SDS011;57680;54.292;18.598;2023-07-24T08:10:32;6.30;;;2.50;;
70270;SDS011;57680;54.292;18.598;2023-07-24T08:12:57;6.77;;;2.47;;
70270;SDS011;57680;54.292;18.598;2023-07-24T08:15:23;6.73;;;2.70;;
70270;SDS011;57680;54.292;18.598;2023-07-24T08:17:48;7.03;;;2.60;;
70270;SDS011;57680;54.292;18.598;2023-07-24T08:20:13;6.53;;;2.53;;
70270;SDS011;57680;54.292;18.598;2023-07-24T08:22:39;6.77;;;2.80;;
70270;SDS011;57680;54.292;18.598;2023-07-24T08:25:04;7.03;;;2.70;;
70270;SDS011;57680;54.292;18.598;2023-07-24T08:27:30;6.38;;;2.70;;
70270;SDS011;57680;54.292;18.598;2023-07-24T08:29:55;7.83;;;2.70;;
70270;SDS011;57680;54.292;18.598;2023-07-24T08:32:20;6.13;;;2.50;;
70270;SDS011;57680;54.292;18.598;2023-07-24T08:34:46;7.33;;;2.90;;
70270;SDS011;57680;54.292;18.598;2023-07-24T08:37:11;9.33;;;2.90;;
70270;SDS011;57680;54.292;18.598;2023-07-24T08:39:37;7.07;;;3.30;;
70270;SDS011;57680;54.292;18.598;2023-07-24T08:42:12;5.97;;;2.77;;
70270;SDS011;57680;54.292;18.598;2023-07-24T08:44:38;11.40;;;3.17;;
70270;SDS011;57680;54.292;18.598;2023-07-24T08:47:04;9.60;;;3.63;;
70270;SDS011;57680;54.292;18.598;2023-07-24T08:49:31;8.25;;;3.10;;
70270;SDS011;57680;54.292;18.598;2023-07-24T08:51:57;8.35;;;3.15;;
70270;SDS011;57680;54.292;18.598;2023-07-24T08:54:23;8.03;;;2.80;;
70270;SDS011;57680;54.292;18.598;2023-07-24T08:56:51;7.15;;;2.70;;
70270;SDS011;57680;54.292;18.598;2023-07-24T08:59:17;6.47;;;2.72;;
70270;SDS011;57680;54.292;18.598;2023-07-24T09:01:42;6.73;;;2.30;;
70270;SDS011;57680;54.292;18.598;2023-07-24T09:04:08;8.03;;;2.50;;
70270;SDS011;57680;54.292;18.598;2023-07-24T09:06:33;5.90;;;2.30;;
70270;SDS011;57680;54.292;18.598;2023-07-24T09:08:59;6.20;;;2.50;;
70270;SDS011;57680;54.292;18.598;2023-07-24T09:11:24;5.60;;;2.70;;
70270;SDS011;57680;54.292;18.598;2023-07-24T09:13:49;7.73;;;2.80;;
70270;SDS011;57680;54.292;18.598;2023-07-24T09:16:22;6.00;;;2.80;;
70270;SDS011;57680;54.292;18.598;2023-07-24T09:18:49;6.20;;;3.00;;
70270;SDS011;57680;54.292;18.598;2023-07-24T09:21:15;6.33;;;3.27;;
70270;SDS011;57680;54.292;18.598;2023-07-24T09:23:40;6.53;;;2.90;;
70270;SDS011;57680;54.292;18.598;2023-07-24T09:26:06;8.03;;;2.80;;
70270;SDS011;57680;54.292;18.598;2023-07-24T09:28:32;6.55;;;3.00;;
70270;SDS011;57680;54.292;18.598;2023-07-24T09:30:58;6.38;;;2.72;;
70270;SDS011;57680;54.292;18.598;2023-07-24T09:33:33;5.87;;;2.60;;
70270;SDS011;57680;54.292;18.598;2023-07-24T09:36:00;6.50;;;2.78;;
70270;SDS011;57680;54.292;18.598;2023-07-24T09:38:26;6.45;;;2.80;;
70270;SDS011;57680;54.292;18.598;2023-07-24T09:40:52;8.73;;;3.00;;
70270;SDS011;57680;54.292;18.598;2023-07-24T09:43:19;6.65;;;2.60;;
70270;SDS011;57680;54.292;18.598;2023-07-24T09:45:49;6.18;;;2.47;;
70270;SDS011;57680;54.292;18.598;2023-07-24T09:48:16;5.88;;;2.55;;
70270;SDS011;57680;54.292;18.598;2023-07-24T09:50:44;6.17;;;2.60;;
70270;SDS011;57680;54.292;18.598;2023-07-24T09:53:30;5.15;;;2.40;;
70270;SDS011;57680;54.292;18.598;2023-07-24T09:56:04;5.55;;;2.53;;
70270;SDS011;57680;54.292;18.598;2023-07-24T09:58:33;6.75;;;2.63;;
70270;SDS011;57680;54.292;18.598;2023-07-24T10:01:07;6.18;;;2.67;;
70270;SDS011;57680;54.292;18.598;2023-07-24T10:03:34;7.10;;;2.43;;
70270;SDS011;57680;54.292;18.598;2023-07-24T10:06:11;6.50;;;2.58;;
70270;SDS011;57680;54.292;18.598;2023-07-24T10:08:36;7.07;;;2.72;;
70270;SDS011;57680;54.292;18.598;2023-07-24T10:11:04;6.50;;;2.73;;
70270;SDS011;57680;54.292;18.598;2023-07-24T10:13:29;7.88;;;2.50;;
70270;SDS011;57680;54.292;18.598;2023-07-24T10:15:55;7.07;;;2.63;;
70270;SDS011;57680;54.292;18.598;2023-07-24T10:18:27;6.53;;;2.42;;
70270;SDS011;57680;54.292;18.598;2023-07-24T10:21:00;5.95;;;2.40;;
70270;SDS011;57680;54.292;18.598;2023-07-24T10:23:26;6.22;;;2.42;;
70270;SDS011;57680;54.292;18.598;2023-07-24T10:25:52;5.80;;;2.40;;
70270;SDS011;57680;54.292;18.598;2023-07-24T10:28:18;6.20;;;2.33;;
70270;SDS011;57680;54.292;18.598;2023-07-24T10:30:44;5.82;;;2.30;;
70270;SDS011;57680;54.292;18.598;2023-07-24T10:35:44;4.63;;;1.80;;
70270;SDS011;57680;54.292;18.598;2023-07-24T10:38:16;5.25;;;1.85;;
70270;SDS011;57680;54.292;18.598;2023-07-24T10:40:42;5.18;;;2.10;;
70270;SDS011;57680;54.292;18.598;2023-07-24T10:45:45;4.32;;;1.90;;
70270;SDS011;57680;54.292;18.598;2023-07-24T10:48:16;18.77;;;2.90;;
70270;SDS011;57680;54.292;18.598;2023-07-24T10:50:43;7.20;;;2.25;;
70270;SDS011;57680;54.292;18.598;2023-07-24T10:53:09;8.82;;;2.55;;
70270;SDS011;57680;54.292;18.598;2023-07-24T10:55:45;6.20;;;2.70;;
70270;SDS011;57680;54.292;18.598;2023-07-24T10:58:11;6.38;;;2.20;;
70270;SDS011;57680;54.292;18.598;2023-07-24T11:00:38;7.17;;;2.53;;
70270;SDS011;57680;54.292;18.598;2023-07-24T11:03:04;6.15;;;2.20;;
70270;SDS011;57680;54.292;18.598;2023-07-24T11:05:32;6.57;;;2.63;;
70270;SDS011;57680;54.292;18.598;2023-07-24T11:07:57;5.50;;;2.40;;
70270;SDS011;57680;54.292;18.598;2023-07-24T11:10:23;7.40;;;2.53;;
70270;SDS011;57680;54.292;18.598;2023-07-24T11:12:48;5.93;;;2.50;;
70270;SDS011;57680;54.292;18.598;2023-07-24T11:15:14;6.10;;;2.70;;
70270;SDS011;57680;54.292;18.598;2023-07-24T11:17:40;11.75;;;2.70;;
70270;SDS011;57680;54.292;18.598;2023-07-24T11:22:40;6.60;;;2.45;;
70270;SDS011;57680;54.292;18.598;2023-07-24T11:25:07;7.20;;;2.45;;
70270;SDS011;57680;54.292;18.598;2023-07-24T11:27:37;5.30;;;2.42;;
70270;SDS011;57680;54.292;18.598;2023-07-24T11:30:03;5.43;;;2.30;;
70270;SDS011;57680;54.292;18.598;2023-07-24T11:32:29;8.40;;;2.30;;
70270;SDS011;57680;54.292;18.598;2023-07-24T11:34:55;7.50;;;2.53;;
70270;SDS011;57680;54.292;18.598;2023-07-24T11:37:21;5.90;;;2.43;;
70270;SDS011;57680;54.292;18.598;2023-07-24T11:39:56;5.85;;;2.50;;
70270;SDS011;57680;54.292;18.598;2023-07-24T11:42:26;5.57;;;2.47;;
70270;SDS011;57680;54.292;18.598;2023-07-24T11:44:52;6.75;;;2.50;;
70270;SDS011;57680;54.292;18.598;2023-07-24T11:47:18;8.25;;;2.70;;
70270;SDS011;57680;54.292;18.598;2023-07-24T11:49:43;6.03;;;2.70;;
70270;SDS011;57680;54.292;18.598;2023-07-24T11:52:09;8.50;;;2.30;;
70270;SDS011;57680;54.292;18.598;2023-07-24T11:54:34;7.10;;;2.50;;
70270;SDS011;57680;54.292;18.598;2023-07-24T11:56:59;7.07;;;2.70;;
70270;SDS011;57680;54.292;18.598;2023-07-24T11:59:25;6.00;;;2.43;;
70270;SDS011;57680;54.292;18.598;2023-07-24T12:01:51;7.93;;;2.50;;
70270;SDS011;57680;54.292;18.598;2023-07-24T12:04:17;6.07;;;2.30;;
70270;SDS011;57680;54.292;18.598;2023-07-24T12:06:42;6.50;;;2.80;;
70270;SDS011;57680;54.292;18.598;2023-07-24T12:09:08;7.23;;;2.57;;
70270;SDS011;57680;54.292;18.598;2023-07-24T12:11:42;5.50;;;2.50;;
70270;SDS011;57680;54.292;18.598;2023-07-24T12:14:08;7.68;;;2.58;;
70270;SDS011;57680;54.292;18.598;2023-07-24T12:16:34;9.23;;;2.20;;
70270;SDS011;57680;54.292;18.598;2023-07-24T12:19:00;9.40;;;2.30;;
70270;SDS011;57680;54.292;18.598;2023-07-24T12:21:25;4.70;;;2.10;;
70270;SDS011;57680;54.292;18.598;2023-07-24T12:23:51;8.10;;;2.37;;
70270;SDS011;57680;54.292;18.598;2023-07-24T12:26:16;7.43;;;2.30;;
70270;SDS011;57680;54.292;18.598;2023-07-24T12:28:41;5.60;;;2.40;;
70270;SDS011;57680;54.292;18.598;2023-07-24T12:31:07;7.00;;;2.60;;
70270;SDS011;57680;54.292;18.598;2023-07-24T12:33:32;11.20;;;2.30;;
70270;SDS011;57680;54.292;18.598;2023-07-24T12:35:57;6.33;;;2.67;;
70270;SDS011;57680;54.292;18.598;2023-07-24T12:38:23;5.47;;;1.90;;
70270;SDS011;57680;54.292;18.598;2023-07-24T12:40:48;5.97;;;1.87;;
70270;SDS011;57680;54.292;18.598;2023-07-24T12:43:14;5.20;;;1.80;;
70270;SDS011;57680;54.292;18.598;2023-07-24T12:45:40;6.43;;;1.90;;
70270;SDS011;57680;54.292;18.598;2023-07-24T12:48:05;5.47;;;2.10;;
70270;SDS011;57680;54.292;18.598;2023-07-24T12:50:31;6.80;;;2.50;;
70270;SDS011;57680;54.292;18.598;2023-07-24T12:52:56;6.03;;;2.50;;
70270;SDS011;57680;54.292;18.598;2023-07-24T12:55:21;8.18;;;2.30;;
70270;SDS011;57680;54.292;18.598;2023-07-24T12:57:47;5.60;;;2.20;;
70270;SDS011;57680;54.292;18.598;2023-07-24T13:00:12;6.93;;;2.20;;
70270;SDS011;57680;54.292;18.598;2023-07-24T13:02:38;5.15;;;2.00;;
70270;SDS011;57680;54.292;18.598;2023-07-24T13:05:03;6.93;;;2.47;;
70270;SDS011;57680;54.292;18.598;2023-07-24T13:07:29;5.97;;;2.07;;
70270;SDS011;57680;54.292;18.598;2023-07-24T13:09:55;4.90;;;1.90;;
70270;SDS011;57680;54.292;18.598;2023-07-24T13:12:20;17.43;;;2.40;;
70270;SDS011;57680;54.292;18.598;2023-07-24T13:14:45;7.07;;;1.80;;
70270;SDS011;57680;54.292;18.598;2023-07-24T13:17:11;7.40;;;1.90;;
70270;SDS011;57680;54.292;18.598;2023-07-24T13:19:37;7.18;;;2.00;;
70270;SDS011;57680;54.292;18.598;2023-07-24T13:22:02;5.77;;;1.80;;
70270;SDS011;57680;54.292;18.598;2023-07-24T13:24:28;5.53;;;2.20;;
70270;SDS011;57680;54.292;18.598;2023-07-24T13:26:54;4.87;;;2.03;;
70270;SDS011;57680;54.292;18.598;2023-07-24T13:29:19;6.17;;;2.00;;
70270;SDS011;57680;54.292;18.598;2023-07-24T13:31:45;7.43;;;2.20;;
70270;SDS011;57680;54.292;18.598;2023-07-24T13:34:10;7.17;;;2.00;;
70270;SDS011;57680;54.292;18.598;2023-07-24T13:36:35;5.60;;;2.17;;
70270;SDS011;57680;54.292;18.598;2023-07-24T13:39:01;6.23;;;1.93;;
70270;SDS011;57680;54.292;18.598;2023-07-24T13:41:27;6.18;;;2.20;;
70270;SDS011;57680;54.292;18.598;2023-07-24T13:43:52;5.43;;;2.00;;
70270;SDS011;57680;54.292;18.598;2023-07-24T13:46:18;5.90;;;2.03;;
70270;SDS011;57680;54.292;18.598;2023-07-24T13:48:43;5.00;;;1.90;;
70270;SDS011;57680;54.292;18.598;2023-07-24T13:51:08;5.30;;;2.10;;
70270;SDS011;57680;54.292;18.598;2023-07-24T13:53:34;7.17;;;2.13;;
70270;SDS011;57680;54.292;18.598;2023-07-24T13:55:59;7.47;;;1.77;;
70270;SDS011;57680;54.292;18.598;2023-07-24T13:58:25;9.23;;;2.20;;
70270;SDS011;57680;54.292;18.598;2023-07-24T14:00:50;5.95;;;1.90;;
70270;SDS011;57680;54.292;18.598;2023-07-24T14:03:15;7.93;;;2.20;;
70270;SDS011;57680;54.292;18.598;2023-07-24T14:05:41;5.00;;;1.80;;
70270;SDS011;57680;54.292;18.598;2023-07-24T14:08:06;4.40;;;1.80;;
70270;SDS011;57680;54.292;18.598;2023-07-24T14:10:32;4.78;;;1.70;;
70270;SDS011;57680;54.292;18.598;2023-07-24T14:12:57;6.97;;;1.80;;
70270;SDS011;57680;54.292;18.598;2023-07-24T14:15:23;9.10;;;2.30;;
70270;SDS011;57680;54.292;18.598;2023-07-24T14:17:48;4.70;;;1.77;;
70270;SDS011;57680;54.292;18.598;2023-07-24T14:20:13;4.55;;;1.85;;
70270;SDS011;57680;54.292;18.598;2023-07-24T14:22:39;6.50;;;2.00;;
70270;SDS011;57680;54.292;18.598;2023-07-24T14:25:04;4.23;;;1.97;;
70270;SDS011;57680;54.292;18.598;2023-07-24T14:27:30;6.00;;;1.90;;
70270;SDS011;57680;54.292;18.598;2023-07-24T14:29:55;6.53;;;2.00;;
70270;SDS011;57680;54.292;18.598;2023-07-24T14:32:21;7.30;;;2.20;;